sensor_id;sensor_type;location;lat;lon;timestamp;temperature;humidity
12700;DHT22;6414;49.570;6.060;2023-09-18T00:00:57;19.20;99.90
12700;DHT22;6414;49.570;6.060;2023-09-18T00:03:44;19.30;99.90
12700;DHT22;6414;49.570;6.060;2023-09-18T00:06:30;19.30;99.90
12700;DHT22;6414;49.570;6.060;2023-09-18T00:09:16;19.40;99.90
12700;DHT22;6414;49.570;6.060;2023-09-18T00:12:02;19.60;99.90
12700;DHT22;6414;49.570;6.060;2023-09-18T00:14:49;19.40;99.90
12700;DHT22;6414;49.570;6.060;2023-09-18T00:17:35;19.10;99.90
12700;DHT22;6414;49.570;6.060;2023-09-18T00:20:22;19.10;99.90
12700;DHT22;6414;49.570;6.060;2023-09-18T00:23:08;18.70;99.90
12700;DHT22;6414;49.570;6.060;2023-09-18T00:25:54;18.50;99.90
12700;DHT22;6414;49.570;6.060;2023-09-18T00:28:40;18.30;99.90
12700;DHT22;6414;49.570;6.060;2023-09-18T00:31:26;18.10;99.90
12700;DHT22;6414;49.570;6.060;2023-09-18T00:34:12;18.00;99.90
12700;DHT22;6414;49.570;6.060;2023-09-18T00:36:58;17.90;99.90
12700;DHT22;6414;49.570;6.060;2023-09-18T00:39:47;17.80;99.90
12700;DHT22;6414;49.570;6.060;2023-09-18T00:42:34;17.50;99.90
12700;DHT22;6414;49.570;6.060;2023-09-18T00:45:20;17.50;99.90
12700;DHT22;6414;49.570;6.060;2023-09-18T00:48:06;17.50;99.90
12700;DHT22;6414;49.570;6.060;2023-09-18T00:50:52;17.50;99.90
12700;DHT22;6414;49.570;6.060;2023-09-18T00:53:38;17.50;99.90
12700;DHT22;6414;49.570;6.060;2023-09-18T00:56:24;17.30;99.90
12700;DHT22;6414;49.570;6.060;2023-09-18T00:59:10;17.20;99.90
12700;DHT22;6414;49.570;6.060;2023-09-18T01:01:56;17.40;99.90
12700;DHT22;6414;49.570;6.060;2023-09-18T01:04:42;17.30;99.90
12700;DHT22;6414;49.570;6.060;2023-09-18T01:07:28;17.30;99.90
12700;DHT22;6414;49.570;6.060;2023-09-18T01:10:14;17.30;99.90
12700;DHT22;6414;49.570;6.060;2023-09-18T01:13:10;17.30;99.90
12700;DHT22;6414;49.570;6.060;2023-09-18T01:15:57;17.30;99.90
12700;DHT22;6414;49.570;6.060;2023-09-18T01:18:50;17.40;99.90
12700;DHT22;6414;49.570;6.060;2023-09-18T01:21:36;17.40;99.90
12700;DHT22;6414;49.570;6.060;2023-09-18T01:24:22;17.40;99.90
12700;DHT22;6414;49.570;6.060;2023-09-18T01:27:09;17.30;99.90
12700;DHT22;6414;49.570;6.060;2023-09-18T01:29:54;17.30;99.90
12700;DHT22;6414;49.570;6.060;2023-09-18T01:32:41;17.30;99.90
12700;DHT22;6414;49.570;6.060;2023-09-18T01:35:27;17.30;99.90
12700;DHT22;6414;49.570;6.060;2023-09-18T01:38:13;17.20;99.90
12700;DHT22;6414;49.570;6.060;2023-09-18T01:40:59;17.20;99.90
12700;DHT22;6414;49.570;6.060;2023-09-18T01:43:45;17.10;99.90
12700;DHT22;6414;49.570;6.060;2023-09-18T01:46:32;17.10;99.90
12700;DHT22;6414;49.570;6.060;2023-09-18T01:49:25;17.10;99.90
12700;DHT22;6414;49.570;6.060;2023-09-18T01:52:03;17.10;99.90
12700;DHT22;6414;49.570;6.060;2023-09-18T01:54:49;17.00;99.90
12700;DHT22;6414;49.570;6.060;2023-09-18T01:57:35;17.00;99.90
12700;DHT22;6414;49.570;6.060;2023-09-18T02:00:22;16.90;99.90
12700;DHT22;6414;49.570;6.060;2023-09-18T02:03:09;17.00;99.90
12700;DHT22;6414;49.570;6.060;2023-09-18T02:05:55;16.90;99.90
12700;DHT22;6414;49.570;6.060;2023-09-18T02:08:41;17.00;99.90
12700;DHT22;6414;49.570;6.060;2023-09-18T02:11:27;16.90;99.90
12700;DHT22;6414;49.570;6.060;2023-09-18T02:14:13;16.90;99.90
12700;DHT22;6414;49.570;6.060;2023-09-18T02:17:00;16.80;99.90
12700;DHT22;6414;49.570;6.060;2023-09-18T02:19:47;16.80;99.90
12700;DHT22;6414;49.570;6.060;2023-09-18T02:22:34;16.90;99.90
12700;DHT22;6414;49.570;6.060;2023-09-18T02:25:20;16.90;99.90
12700;DHT22;6414;49.570;6.060;2023-09-18T02:28:06;16.90;99.90
12700;DHT22;6414;49.570;6.060;2023-09-18T02:30:52;16.90;99.90
12700;DHT22;6414;49.570;6.060;2023-09-18T02:33:38;16.90;99.90
12700;DHT22;6414;49.570;6.060;2023-09-18T02:36:24;16.90;99.90
12700;DHT22;6414;49.570;6.060;2023-09-18T02:39:11;16.90;99.90
12700;DHT22;6414;49.570;6.060;2023-09-18T02:41:57;16.90;99.90
12700;DHT22;6414;49.570;6.060;2023-09-18T02:44:43;16.90;99.90
12700;DHT22;6414;49.570;6.060;2023-09-18T02:47:30;16.90;99.90
12700;DHT22;6414;49.570;6.060;2023-09-18T02:50:16;16.90;99.90
12700;DHT22;6414;49.570;6.060;2023-09-18T02:53:02;16.80;99.90
12700;DHT22;6414;49.570;6.060;2023-09-18T02:55:49;16.80;99.90
12700;DHT22;6414;49.570;6.060;2023-09-18T02:58:35;16.80;99.90
12700;DHT22;6414;49.570;6.060;2023-09-18T03:01:21;16.80;99.90
12700;DHT22;6414;49.570;6.060;2023-09-18T03:04:07;16.80;99.90
12700;DHT22;6414;49.570;6.060;2023-09-18T03:06:53;16.80;99.90
12700;DHT22;6414;49.570;6.060;2023-09-18T03:09:40;16.80;99.90
12700;DHT22;6414;49.570;6.060;2023-09-18T03:12:27;16.90;99.90
12700;DHT22;6414;49.570;6.060;2023-09-18T03:15:13;16.90;99.90
12700;DHT22;6414;49.570;6.060;2023-09-18T03:17:59;16.90;99.90
12700;DHT22;6414;49.570;6.060;2023-09-18T03:20:45;16.90;99.90
12700;DHT22;6414;49.570;6.060;2023-09-18T03:23:31;17.00;99.90
12700;DHT22;6414;49.570;6.060;2023-09-18T03:26:17;16.90;99.90
12700;DHT22;6414;49.570;6.060;2023-09-18T03:29:04;16.90;99.90
12700;DHT22;6414;49.570;6.060;2023-09-18T03:31:50;16.90;99.90
12700;DHT22;6414;49.570;6.060;2023-09-18T03:34:37;17.00;99.90
12700;DHT22;6414;49.570;6.060;2023-09-18T03:37:23;17.10;99.90
12700;DHT22;6414;49.570;6.060;2023-09-18T03:40:09;17.00;99.90
12700;DHT22;6414;49.570;6.060;2023-09-18T03:42:55;17.00;99.90
12700;DHT22;6414;49.570;6.060;2023-09-18T03:45:41;17.00;99.90
12700;DHT22;6414;49.570;6.060;2023-09-18T03:48:27;16.90;99.90
12700;DHT22;6414;49.570;6.060;2023-09-18T03:51:14;16.90;99.90
12700;DHT22;6414;49.570;6.060;2023-09-18T03:54:00;16.90;99.90
12700;DHT22;6414;49.570;6.060;2023-09-18T03:56:46;16.90;99.90
12700;DHT22;6414;49.570;6.060;2023-09-18T03:59:34;17.00;99.90
12700;DHT22;6414;49.570;6.060;2023-09-18T04:02:21;17.00;99.90
12700;DHT22;6414;49.570;6.060;2023-09-18T04:05:06;17.00;99.90
12700;DHT22;6414;49.570;6.060;2023-09-18T04:07:53;16.90;99.90
12700;DHT22;6414;49.570;6.060;2023-09-18T04:10:40;17.00;99.90
12700;DHT22;6414;49.570;6.060;2023-09-18T04:13:26;17.00;99.90
12700;DHT22;6414;49.570;6.060;2023-09-18T04:16:12;17.00;99.90
12700;DHT22;6414;49.570;6.060;2023-09-18T04:18:58;17.00;99.90
12700;DHT22;6414;49.570;6.060;2023-09-18T04:21:45;17.00;99.90
12700;DHT22;6414;49.570;6.060;2023-09-18T04:24:31;17.00;99.90
12700;DHT22;6414;49.570;6.060;2023-09-18T04:27:17;17.00;99.90
12700;DHT22;6414;49.570;6.060;2023-09-18T04:30:03;17.00;99.90
12700;DHT22;6414;49.570;6.060;2023-09-18T04:32:49;17.00;99.90
12700;DHT22;6414;49.570;6.060;2023-09-18T04:35:35;17.00;99.90
12700;DHT22;6414;49.570;6.060;2023-09-18T04:38:21;17.00;99.90
12700;DHT22;6414;49.570;6.060;2023-09-18T04:41:07;16.90;99.90
12700;DHT22;6414;49.570;6.060;2023-09-18T04:43:57;16.90;99.90
12700;DHT22;6414;49.570;6.060;2023-09-18T04:46:43;16.90;99.90
12700;DHT22;6414;49.570;6.060;2023-09-18T04:49:29;16.80;99.90
12700;DHT22;6414;49.570;6.060;2023-09-18T04:52:15;16.80;99.90
12700;DHT22;6414;49.570;6.060;2023-09-18T04:55:01;16.80;99.90
12700;DHT22;6414;49.570;6.060;2023-09-18T04:57:47;16.80;99.90
12700;DHT22;6414;49.570;6.060;2023-09-18T05:00:32;16.80;99.90
12700;DHT22;6414;49.570;6.060;2023-09-18T05:03:19;16.80;99.90
12700;DHT22;6414;49.570;6.060;2023-09-18T05:06:04;16.90;99.90
12700;DHT22;6414;49.570;6.060;2023-09-18T05:08:50;16.90;99.90
12700;DHT22;6414;49.570;6.060;2023-09-18T05:11:37;16.90;99.90
12700;DHT22;6414;49.570;6.060;2023-09-18T05:14:23;16.90;99.90
12700;DHT22;6414;49.570;6.060;2023-09-18T05:17:10;17.00;99.90
12700;DHT22;6414;49.570;6.060;2023-09-18T05:19:55;16.90;99.90
12700;DHT22;6414;49.570;6.060;2023-09-18T05:22:42;16.90;99.90
12700;DHT22;6414;49.570;6.060;2023-09-18T05:25:28;17.00;99.90
12700;DHT22;6414;49.570;6.060;2023-09-18T05:28:14;16.90;99.90
12700;DHT22;6414;49.570;6.060;2023-09-18T05:31:00;16.90;99.90
12700;DHT22;6414;49.570;6.060;2023-09-18T05:33:46;17.00;99.90
12700;DHT22;6414;49.570;6.060;2023-09-18T05:36:32;17.00;99.90
12700;DHT22;6414;49.570;6.060;2023-09-18T05:39:18;16.90;99.90
12700;DHT22;6414;49.570;6.060;2023-09-18T05:42:04;17.00;99.90
12700;DHT22;6414;49.570;6.060;2023-09-18T05:44:51;17.00;99.90
12700;DHT22;6414;49.570;6.060;2023-09-18T05:47:37;17.00;99.90
12700;DHT22;6414;49.570;6.060;2023-09-18T05:50:24;17.00;99.90
12700;DHT22;6414;49.570;6.060;2023-09-18T05:53:10;17.00;99.90
12700;DHT22;6414;49.570;6.060;2023-09-18T05:55:56;17.00;99.90
12700;DHT22;6414;49.570;6.060;2023-09-18T05:58:42;17.00;99.90
12700;DHT22;6414;49.570;6.060;2023-09-18T06:01:28;17.00;99.90
12700;DHT22;6414;49.570;6.060;2023-09-18T06:04:14;17.00;99.90
12700;DHT22;6414;49.570;6.060;2023-09-18T06:07:00;17.00;99.90
12700;DHT22;6414;49.570;6.060;2023-09-18T06:09:46;16.90;99.90
12700;DHT22;6414;49.570;6.060;2023-09-18T06:12:31;17.00;99.90
12700;DHT22;6414;49.570;6.060;2023-09-18T06:15:18;17.00;99.90
12700;DHT22;6414;49.570;6.060;2023-09-18T06:18:04;17.00;99.90
12700;DHT22;6414;49.570;6.060;2023-09-18T06:20:51;17.00;99.90
12700;DHT22;6414;49.570;6.060;2023-09-18T06:23:37;17.00;99.90
12700;DHT22;6414;49.570;6.060;2023-09-18T06:26:23;17.10;99.90
12700;DHT22;6414;49.570;6.060;2023-09-18T06:29:10;17.00;99.90
12700;DHT22;6414;49.570;6.060;2023-09-18T06:31:56;17.00;99.90
12700;DHT22;6414;49.570;6.060;2023-09-18T06:34:42;17.10;99.90
12700;DHT22;6414;49.570;6.060;2023-09-18T06:37:29;17.00;99.90
12700;DHT22;6414;49.570;6.060;2023-09-18T06:40:16;17.10;99.90
12700;DHT22;6414;49.570;6.060;2023-09-18T06:43:02;17.10;99.90
12700;DHT22;6414;49.570;6.060;2023-09-18T06:45:48;17.10;99.90
12700;DHT22;6414;49.570;6.060;2023-09-18T06:48:34;17.10;99.90
12700;DHT22;6414;49.570;6.060;2023-09-18T06:51:20;17.10;99.90
12700;DHT22;6414;49.570;6.060;2023-09-18T06:54:07;17.00;99.90
12700;DHT22;6414;49.570;6.060;2023-09-18T06:56:54;17.10;99.90
12700;DHT22;6414;49.570;6.060;2023-09-18T06:59:39;17.10;99.90
12700;DHT22;6414;49.570;6.060;2023-09-18T07:02:25;17.10;99.90
12700;DHT22;6414;49.570;6.060;2023-09-18T07:05:12;17.10;99.90
12700;DHT22;6414;49.570;6.060;2023-09-18T07:07:58;17.10;99.90
12700;DHT22;6414;49.570;6.060;2023-09-18T07:10:44;17.10;99.90
12700;DHT22;6414;49.570;6.060;2023-09-18T07:13:30;17.20;99.90
12700;DHT22;6414;49.570;6.060;2023-09-18T07:16:17;17.20;99.90
12700;DHT22;6414;49.570;6.060;2023-09-18T07:19:03;17.20;99.90
12700;DHT22;6414;49.570;6.060;2023-09-18T07:21:49;17.20;99.90
12700;DHT22;6414;49.570;6.060;2023-09-18T07:24:34;17.20;99.90
12700;DHT22;6414;49.570;6.060;2023-09-18T07:27:20;17.20;99.90
12700;DHT22;6414;49.570;6.060;2023-09-18T07:30:07;17.20;99.90
12700;DHT22;6414;49.570;6.060;2023-09-18T07:32:55;17.20;99.90
12700;DHT22;6414;49.570;6.060;2023-09-18T07:35:47;17.10;99.90
12700;DHT22;6414;49.570;6.060;2023-09-18T07:38:33;17.10;99.90
12700;DHT22;6414;49.570;6.060;2023-09-18T07:41:19;17.10;99.90
12700;DHT22;6414;49.570;6.060;2023-09-18T07:44:06;17.10;99.90
12700;DHT22;6414;49.570;6.060;2023-09-18T07:46:51;17.20;99.90
12700;DHT22;6414;49.570;6.060;2023-09-18T07:49:38;17.20;99.90
12700;DHT22;6414;49.570;6.060;2023-09-18T07:52:24;17.20;99.90
12700;DHT22;6414;49.570;6.060;2023-09-18T07:55:10;17.20;99.90
12700;DHT22;6414;49.570;6.060;2023-09-18T07:57:56;17.20;99.90
12700;DHT22;6414;49.570;6.060;2023-09-18T08:00:42;17.30;99.90
12700;DHT22;6414;49.570;6.060;2023-09-18T08:03:28;17.30;99.90
12700;DHT22;6414;49.570;6.060;2023-09-18T08:06:14;17.30;99.90
12700;DHT22;6414;49.570;6.060;2023-09-18T08:09:00;17.40;99.90
12700;DHT22;6414;49.570;6.060;2023-09-18T08:11:47;17.40;99.90
12700;DHT22;6414;49.570;6.060;2023-09-18T08:14:33;17.40;99.90
12700;DHT22;6414;49.570;6.060;2023-09-18T08:17:19;17.50;99.90
12700;DHT22;6414;49.570;6.060;2023-09-18T08:20:05;17.50;99.90
12700;DHT22;6414;49.570;6.060;2023-09-18T08:22:52;17.60;99.90
12700;DHT22;6414;49.570;6.060;2023-09-18T08:25:38;17.60;99.90
12700;DHT22;6414;49.570;6.060;2023-09-18T08:28:24;17.50;99.90
12700;DHT22;6414;49.570;6.060;2023-09-18T08:31:10;17.50;99.90
12700;DHT22;6414;49.570;6.060;2023-09-18T08:33:56;17.50;99.90
12700;DHT22;6414;49.570;6.060;2023-09-18T08:36:42;17.40;99.90
12700;DHT22;6414;49.570;6.060;2023-09-18T08:39:29;17.40;99.90
12700;DHT22;6414;49.570;6.060;2023-09-18T08:42:15;17.40;99.90
12700;DHT22;6414;49.570;6.060;2023-09-18T08:45:01;17.30;99.90
12700;DHT22;6414;49.570;6.060;2023-09-18T08:47:48;17.40;99.90
12700;DHT22;6414;49.570;6.060;2023-09-18T08:50:34;17.40;99.90
12700;DHT22;6414;49.570;6.060;2023-09-18T08:53:19;17.40;99.90
12700;DHT22;6414;49.570;6.060;2023-09-18T08:56:06;17.40;99.90
12700;DHT22;6414;49.570;6.060;2023-09-18T08:58:52;17.40;99.90
12700;DHT22;6414;49.570;6.060;2023-09-18T09:01:38;17.50;99.90
12700;DHT22;6414;49.570;6.060;2023-09-18T09:04:25;17.60;99.90
12700;DHT22;6414;49.570;6.060;2023-09-18T09:07:11;17.60;99.90
12700;DHT22;6414;49.570;6.060;2023-09-18T09:09:57;17.60;99.90
12700;DHT22;6414;49.570;6.060;2023-09-18T09:12:54;17.60;99.90
12700;DHT22;6414;49.570;6.060;2023-09-18T09:15:45;17.70;99.90
12700;DHT22;6414;49.570;6.060;2023-09-18T09:18:21;17.70;99.90
12700;DHT22;6414;49.570;6.060;2023-09-18T09:21:08;17.80;99.90
12700;DHT22;6414;49.570;6.060;2023-09-18T09:23:54;17.80;99.90
12700;DHT22;6414;49.570;6.060;2023-09-18T09:26:40;18.00;99.90
12700;DHT22;6414;49.570;6.060;2023-09-18T09:29:26;18.10;99.90
12700;DHT22;6414;49.570;6.060;2023-09-18T09:32:18;18.20;99.90
12700;DHT22;6414;49.570;6.060;2023-09-18T09:35:00;18.40;99.90
12700;DHT22;6414;49.570;6.060;2023-09-18T09:37:46;18.50;99.90
12700;DHT22;6414;49.570;6.060;2023-09-18T09:40:32;18.70;99.90
12700;DHT22;6414;49.570;6.060;2023-09-18T09:43:19;19.00;99.90
12700;DHT22;6414;49.570;6.060;2023-09-18T09:46:04;19.00;99.90
12700;DHT22;6414;49.570;6.060;2023-09-18T09:49:06;19.00;99.90
12700;DHT22;6414;49.570;6.060;2023-09-18T09:51:52;18.90;99.90
12700;DHT22;6414;49.570;6.060;2023-09-18T09:54:38;19.00;99.90
12700;DHT22;6414;49.570;6.060;2023-09-18T09:57:24;19.00;99.90
12700;DHT22;6414;49.570;6.060;2023-09-18T10:00:10;19.10;99.90
12700;DHT22;6414;49.570;6.060;2023-09-18T10:03:01;19.00;99.90
12700;DHT22;6414;49.570;6.060;2023-09-18T10:05:47;19.00;99.90
12700;DHT22;6414;49.570;6.060;2023-09-18T10:08:32;19.60;99.90
12700;DHT22;6414;49.570;6.060;2023-09-18T10:11:19;19.90;99.90
12700;DHT22;6414;49.570;6.060;2023-09-18T10:14:09;19.90;99.90
12700;DHT22;6414;49.570;6.060;2023-09-18T10:16:54;20.10;99.90
12700;DHT22;6414;49.570;6.060;2023-09-18T10:19:40;19.70;99.90
12700;DHT22;6414;49.570;6.060;2023-09-18T10:22:32;19.80;99.90
12700;DHT22;6414;49.570;6.060;2023-09-18T10:25:21;19.80;99.90
12700;DHT22;6414;49.570;6.060;2023-09-18T10:28:06;20.10;99.90
12700;DHT22;6414;49.570;6.060;2023-09-18T10:30:52;20.40;99.90
12700;DHT22;6414;49.570;6.060;2023-09-18T10:33:38;20.30;99.90
12700;DHT22;6414;49.570;6.060;2023-09-18T10:36:25;20.20;99.90
12700;DHT22;6414;49.570;6.060;2023-09-18T10:39:11;20.30;99.90
12700;DHT22;6414;49.570;6.060;2023-09-18T10:41:58;19.90;99.90
12700;DHT22;6414;49.570;6.060;2023-09-18T10:44:44;19.90;99.90
12700;DHT22;6414;49.570;6.060;2023-09-18T10:47:30;19.90;99.90
12700;DHT22;6414;49.570;6.060;2023-09-18T10:50:24;19.80;99.90
12700;DHT22;6414;49.570;6.060;2023-09-18T10:53:09;19.80;99.90
12700;DHT22;6414;49.570;6.060;2023-09-18T10:55:55;19.80;99.90
12700;DHT22;6414;49.570;6.060;2023-09-18T10:58:41;19.90;99.90
12700;DHT22;6414;49.570;6.060;2023-09-18T11:01:28;19.80;99.90
12700;DHT22;6414;49.570;6.060;2023-09-18T11:04:13;19.80;99.90
12700;DHT22;6414;49.570;6.060;2023-09-18T11:09:45;20.20;99.90
12700;DHT22;6414;49.570;6.060;2023-09-18T11:12:44;20.00;99.90
12700;DHT22;6414;49.570;6.060;2023-09-18T11:15:33;20.10;99.90
12700;DHT22;6414;49.570;6.060;2023-09-18T11:18:19;20.30;99.90
12700;DHT22;6414;49.570;6.060;2023-09-18T11:21:08;20.40;99.90
12700;DHT22;6414;49.570;6.060;2023-09-18T11:24:07;20.40;99.90
12700;DHT22;6414;49.570;6.060;2023-09-18T11:26:52;20.50;99.90
12700;DHT22;6414;49.570;6.060;2023-09-18T11:29:37;20.30;99.90
12700;DHT22;6414;49.570;6.060;2023-09-18T11:32:39;20.30;99.90
12700;DHT22;6414;49.570;6.060;2023-09-18T11:35:27;20.40;99.90
12700;DHT22;6414;49.570;6.060;2023-09-18T11:38:13;20.40;99.90
12700;DHT22;6414;49.570;6.060;2023-09-18T11:41:00;20.20;99.90
12700;DHT22;6414;49.570;6.060;2023-09-18T11:43:48;20.20;99.90
12700;DHT22;6414;49.570;6.060;2023-09-18T11:46:34;20.10;99.90
12700;DHT22;6414;49.570;6.060;2023-09-18T11:49:24;20.30;99.90
12700;DHT22;6414;49.570;6.060;2023-09-18T11:52:09;20.40;99.90
12700;DHT22;6414;49.570;6.060;2023-09-18T11:54:56;20.30;99.90
12700;DHT22;6414;49.570;6.060;2023-09-18T11:57:41;20.40;99.90
12700;DHT22;6414;49.570;6.060;2023-09-18T12:00:27;20.40;99.90
12700;DHT22;6414;49.570;6.060;2023-09-18T12:03:16;20.40;99.90
12700;DHT22;6414;49.570;6.060;2023-09-18T12:06:03;20.30;99.90
12700;DHT22;6414;49.570;6.060;2023-09-18T12:08:47;20.50;99.90
12700;DHT22;6414;49.570;6.060;2023-09-18T12:11:34;20.70;99.90
12700;DHT22;6414;49.570;6.060;2023-09-18T12:14:22;20.70;99.90
12700;DHT22;6414;49.570;6.060;2023-09-18T12:17:08;21.00;99.90
12700;DHT22;6414;49.570;6.060;2023-09-18T12:19:54;21.10;99.90
12700;DHT22;6414;49.570;6.060;2023-09-18T12:22:40;21.10;99.90
12700;DHT22;6414;49.570;6.060;2023-09-18T12:25:26;21.20;99.90
12700;DHT22;6414;49.570;6.060;2023-09-18T12:28:13;21.00;99.90
12700;DHT22;6414;49.570;6.060;2023-09-18T12:30:58;21.00;99.90
12700;DHT22;6414;49.570;6.060;2023-09-18T12:33:45;20.90;99.90
12700;DHT22;6414;49.570;6.060;2023-09-18T12:36:31;21.20;99.90
12700;DHT22;6414;49.570;6.060;2023-09-18T12:39:17;21.30;99.90
12700;DHT22;6414;49.570;6.060;2023-09-18T12:42:03;21.20;99.90
12700;DHT22;6414;49.570;6.060;2023-09-18T12:44:49;21.30;99.90
12700;DHT22;6414;49.570;6.060;2023-09-18T12:47:35;21.30;99.90
12700;DHT22;6414;49.570;6.060;2023-09-18T12:50:22;21.30;99.90
12700;DHT22;6414;49.570;6.060;2023-09-18T12:53:08;21.30;99.90
12700;DHT22;6414;49.570;6.060;2023-09-18T12:55:54;21.40;99.90
12700;DHT22;6414;49.570;6.060;2023-09-18T12:58:41;21.40;99.90
12700;DHT22;6414;49.570;6.060;2023-09-18T13:01:26;21.50;99.90
12700;DHT22;6414;49.570;6.060;2023-09-18T13:04:13;21.80;99.90
12700;DHT22;6414;49.570;6.060;2023-09-18T13:07:12;22.00;99.90
12700;DHT22;6414;49.570;6.060;2023-09-18T13:09:58;21.90;99.90
12700;DHT22;6414;49.570;6.060;2023-09-18T13:12:51;22.00;99.90
12700;DHT22;6414;49.570;6.060;2023-09-18T13:15:36;22.00;99.90
12700;DHT22;6414;49.570;6.060;2023-09-18T13:18:22;22.00;99.90
12700;DHT22;6414;49.570;6.060;2023-09-18T13:21:11;22.00;99.90
12700;DHT22;6414;49.570;6.060;2023-09-18T13:23:59;21.90;99.90
12700;DHT22;6414;49.570;6.060;2023-09-18T13:26:45;21.90;99.90
12700;DHT22;6414;49.570;6.060;2023-09-18T13:29:31;21.90;99.90
12700;DHT22;6414;49.570;6.060;2023-09-18T13:32:18;21.70;99.90
12700;DHT22;6414;49.570;6.060;2023-09-18T13:35:04;21.70;99.90
12700;DHT22;6414;49.570;6.060;2023-09-18T13:37:52;21.80;99.90
12700;DHT22;6414;49.570;6.060;2023-09-18T13:40:39;21.80;99.90
12700;DHT22;6414;49.570;6.060;2023-09-18T13:43:25;21.90;99.90
12700;DHT22;6414;49.570;6.060;2023-09-18T13:46:11;21.90;99.90
12700;DHT22;6414;49.570;6.060;2023-09-18T13:48:57;22.00;99.90
12700;DHT22;6414;49.570;6.060;2023-09-18T13:51:43;21.90;99.90
12700;DHT22;6414;49.570;6.060;2023-09-18T13:54:29;22.00;99.90
12700;DHT22;6414;49.570;6.060;2023-09-18T13:57:17;22.00;99.90
12700;DHT22;6414;49.570;6.060;2023-09-18T14:00:03;22.00;99.90
12700;DHT22;6414;49.570;6.060;2023-09-18T14:02:48;22.00;99.90
12700;DHT22;6414;49.570;6.060;2023-09-18T14:05:35;21.80;99.90
12700;DHT22;6414;49.570;6.060;2023-09-18T14:08:21;21.80;99.90
12700;DHT22;6414;49.570;6.060;2023-09-18T14:11:07;21.80;99.90
12700;DHT22;6414;49.570;6.060;2023-09-18T14:13:53;21.90;99.90
12700;DHT22;6414;49.570;6.060;2023-09-18T14:16:39;21.90;99.90
12700;DHT22;6414;49.570;6.060;2023-09-18T14:19:25;22.00;99.90
12700;DHT22;6414;49.570;6.060;2023-09-18T14:22:11;22.00;99.90
12700;DHT22;6414;49.570;6.060;2023-09-18T14:24:57;22.00;99.90
12700;DHT22;6414;49.570;6.060;2023-09-18T14:27:44;21.90;99.90
12700;DHT22;6414;49.570;6.060;2023-09-18T14:30:29;21.80;99.90
12700;DHT22;6414;49.570;6.060;2023-09-18T14:33:16;21.50;99.90
12700;DHT22;6414;49.570;6.060;2023-09-18T14:36:03;21.40;99.90
12700;DHT22;6414;49.570;6.060;2023-09-18T14:38:49;21.40;99.90
12700;DHT22;6414;49.570;6.060;2023-09-18T14:41:36;21.40;99.90
12700;DHT22;6414;49.570;6.060;2023-09-18T14:44:22;21.40;99.90
12700;DHT22;6414;49.570;6.060;2023-09-18T14:47:08;21.40;99.90
12700;DHT22;6414;49.570;6.060;2023-09-18T14:49:54;21.50;99.90
12700;DHT22;6414;49.570;6.060;2023-09-18T14:52:40;21.50;99.90
12700;DHT22;6414;49.570;6.060;2023-09-18T14:55:27;21.50;99.90
12700;DHT22;6414;49.570;6.060;2023-09-18T14:58:13;21.50;99.90
12700;DHT22;6414;49.570;6.060;2023-09-18T15:00:59;21.50;99.90
12700;DHT22;6414;49.570;6.060;2023-09-18T15:03:46;21.60;99.90
12700;DHT22;6414;49.570;6.060;2023-09-18T15:06:32;21.70;99.90
12700;DHT22;6414;49.570;6.060;2023-09-18T15:09:18;21.80;99.90
12700;DHT22;6414;49.570;6.060;2023-09-18T15:12:04;21.90;99.90
12700;DHT22;6414;49.570;6.060;2023-09-18T15:14:50;22.00;99.90
12700;DHT22;6414;49.570;6.060;2023-09-18T15:17:36;22.00;99.90
12700;DHT22;6414;49.570;6.060;2023-09-18T15:20:22;21.90;99.90
12700;DHT22;6414;49.570;6.060;2023-09-18T15:23:08;21.80;99.90
12700;DHT22;6414;49.570;6.060;2023-09-18T15:25:54;21.70;99.90
12700;DHT22;6414;49.570;6.060;2023-09-18T15:28:40;21.60;99.90
12700;DHT22;6414;49.570;6.060;2023-09-18T15:31:27;21.70;99.90
12700;DHT22;6414;49.570;6.060;2023-09-18T15:34:13;21.60;99.90
12700;DHT22;6414;49.570;6.060;2023-09-18T15:36:59;21.50;99.90
12700;DHT22;6414;49.570;6.060;2023-09-18T15:39:45;21.40;99.90
12700;DHT22;6414;49.570;6.060;2023-09-18T15:42:31;21.20;99.90
12700;DHT22;6414;49.570;6.060;2023-09-18T15:45:17;21.20;99.90
12700;DHT22;6414;49.570;6.060;2023-09-18T15:48:04;21.10;99.90
12700;DHT22;6414;49.570;6.060;2023-09-18T15:50:50;21.10;99.90
12700;DHT22;6414;49.570;6.060;2023-09-18T15:53:36;21.10;99.90
12700;DHT22;6414;49.570;6.060;2023-09-18T15:56:23;21.00;99.90
12700;DHT22;6414;49.570;6.060;2023-09-18T15:59:09;21.00;99.90
12700;DHT22;6414;49.570;6.060;2023-09-18T16:01:55;21.10;99.90
12700;DHT22;6414;49.570;6.060;2023-09-18T16:04:42;21.10;99.90
12700;DHT22;6414;49.570;6.060;2023-09-18T16:07:28;21.10;99.90
12700;DHT22;6414;49.570;6.060;2023-09-18T16:10:14;21.20;99.90
12700;DHT22;6414;49.570;6.060;2023-09-18T16:13:00;21.20;99.90
12700;DHT22;6414;49.570;6.060;2023-09-18T16:15:46;21.10;99.90
12700;DHT22;6414;49.570;6.060;2023-09-18T16:18:33;20.90;99.90
12700;DHT22;6414;49.570;6.060;2023-09-18T16:21:19;20.90;99.90
12700;DHT22;6414;49.570;6.060;2023-09-18T16:24:05;20.80;99.90
12700;DHT22;6414;49.570;6.060;2023-09-18T16:26:55;20.90;99.90
12700;DHT22;6414;49.570;6.060;2023-09-18T16:29:41;20.80;99.90
12700;DHT22;6414;49.570;6.060;2023-09-18T16:32:28;20.80;99.90
12700;DHT22;6414;49.570;6.060;2023-09-18T16:35:13;20.90;99.90
12700;DHT22;6414;49.570;6.060;2023-09-18T16:37:59;20.90;99.90
12700;DHT22;6414;49.570;6.060;2023-09-18T16:40:45;20.90;99.90
12700;DHT22;6414;49.570;6.060;2023-09-18T16:43:31;20.80;99.90
12700;DHT22;6414;49.570;6.060;2023-09-18T16:46:17;20.70;99.90
12700;DHT22;6414;49.570;6.060;2023-09-18T16:49:04;20.50;99.90
12700;DHT22;6414;49.570;6.060;2023-09-18T16:51:50;20.50;99.90
12700;DHT22;6414;49.570;6.060;2023-09-18T16:54:37;20.40;99.90
12700;DHT22;6414;49.570;6.060;2023-09-18T16:57:23;20.40;99.90
12700;DHT22;6414;49.570;6.060;2023-09-18T17:00:09;20.30;99.90
12700;DHT22;6414;49.570;6.060;2023-09-18T17:02:55;20.10;99.90
12700;DHT22;6414;49.570;6.060;2023-09-18T17:05:41;20.10;99.90
12700;DHT22;6414;49.570;6.060;2023-09-18T17:08:27;20.00;99.90
12700;DHT22;6414;49.570;6.060;2023-09-18T17:11:13;19.80;99.90
12700;DHT22;6414;49.570;6.060;2023-09-18T17:14:00;19.70;99.90
12700;DHT22;6414;49.570;6.060;2023-09-18T17:16:46;19.70;99.90
12700;DHT22;6414;49.570;6.060;2023-09-18T17:19:32;19.60;99.90
12700;DHT22;6414;49.570;6.060;2023-09-18T17:22:18;19.60;99.90
12700;DHT22;6414;49.570;6.060;2023-09-18T17:25:04;19.60;99.90
12700;DHT22;6414;49.570;6.060;2023-09-18T17:27:50;19.50;99.90
12700;DHT22;6414;49.570;6.060;2023-09-18T17:30:36;19.40;99.90
12700;DHT22;6414;49.570;6.060;2023-09-18T17:33:22;19.40;99.90
12700;DHT22;6414;49.570;6.060;2023-09-18T17:36:07;19.30;99.90
12700;DHT22;6414;49.570;6.060;2023-09-18T17:38:54;19.30;99.90
12700;DHT22;6414;49.570;6.060;2023-09-18T17:41:39;19.20;99.90
12700;DHT22;6414;49.570;6.060;2023-09-18T17:44:25;19.20;99.90
12700;DHT22;6414;49.570;6.060;2023-09-18T17:47:12;19.10;99.90
12700;DHT22;6414;49.570;6.060;2023-09-18T17:49:58;19.10;99.90